createdAt,value
2018-02-21T00:02:12.953Z,99752.33
2018-02-21T00:04:40.500Z,99755.59
2018-02-21T00:07:08.069Z,99758.16
2018-02-21T00:09:35.696Z,99761.00
2018-02-21T00:12:03.256Z,99750.97
2018-02-21T00:14:30.828Z,99752.73
2018-02-21T00:16:58.426Z,99761.36
2018-02-21T00:19:25.999Z,99760.22
2018-02-21T00:21:53.553Z,99750.29
2018-02-21T00:24:21.130Z,99753.98
2018-02-21T00:26:48.692Z,99758.70
2018-02-21T00:29:16.254Z,99761.67
2018-02-21T00:31:43.855Z,99756.70
2018-02-21T00:34:11.409Z,99754.78
2018-02-21T00:36:38.965Z,99752.23
2018-02-21T00:39:06.579Z,99752.71
2018-02-21T00:41:34.141Z,99743.00
2018-02-21T00:44:01.714Z,99740.13
2018-02-21T00:46:29.324Z,99743.66
2018-02-21T00:48:56.895Z,99736.06
2018-02-21T00:51:24.461Z,99743.66
2018-02-21T00:53:52.050Z,99739.55
2018-02-21T00:56:19.627Z,99717.38
2018-02-21T00:58:47.212Z,99744.48
2018-02-21T01:01:14.793Z,99742.89
2018-02-21T01:03:42.348Z,99737.16
2018-02-21T01:06:09.908Z,99737.44
2018-02-21T01:08:37.497Z,99737.36
2018-02-21T01:11:05.035Z,99734.19
2018-02-21T01:13:32.602Z,99736.56
2018-02-21T01:16:00.204Z,99727.56
2018-02-21T01:18:27.764Z,99723.03
2018-02-21T01:20:55.363Z,99719.14
2018-02-21T01:23:22.944Z,99716.23
2018-02-21T01:25:50.503Z,99710.80
2018-02-21T01:28:18.062Z,99715.27
2018-02-21T01:30:45.672Z,99718.05
2018-02-21T01:33:13.228Z,99722.34
2018-02-21T01:35:40.818Z,99715.31
2018-02-21T01:38:08.417Z,99716.81
2018-02-21T01:40:35.985Z,99714.03
2018-02-21T01:43:03.559Z,99709.36
2018-02-21T01:45:31.163Z,99715.20
2018-02-21T01:47:58.733Z,99711.82
2018-02-21T01:50:26.363Z,99717.05
2018-02-21T01:52:53.998Z,99713.26
2018-02-21T01:55:21.598Z,99718.73
2018-02-21T01:57:49.168Z,99720.57
2018-02-21T02:00:16.798Z,99714.44
2018-02-21T02:02:44.383Z,99716.59
2018-02-21T02:05:11.959Z,99713.20
2018-02-21T02:07:39.574Z,99710.86
2018-02-21T02:10:07.166Z,99715.73
2018-02-21T02:12:34.740Z,99716.26
2018-02-21T02:15:02.361Z,99716.41
2018-02-21T02:17:30.076Z,99714.98
2018-02-21T02:19:57.638Z,99714.98
2018-02-21T02:22:25.252Z,99712.31
2018-02-21T02:24:52.872Z,99703.92
2018-02-21T02:27:20.459Z,99702.88
2018-02-21T02:29:48.070Z,99706.93
2018-02-21T02:32:15.647Z,99701.03
2018-02-21T02:34:43.249Z,99701.00
2018-02-21T02:37:10.854Z,99693.12
2018-02-21T02:39:52.146Z,99689.89
2018-02-21T02:42:19.753Z,99690.75
2018-02-21T02:44:47.322Z,99689.83
2018-02-21T02:47:14.956Z,99689.73
2018-02-21T02:49:42.559Z,99686.20
2018-02-21T02:52:10.138Z,99687.25
2018-02-21T02:54:37.716Z,99689.72
2018-02-21T02:57:05.316Z,99684.20
2018-02-21T02:59:32.900Z,99677.45
2018-02-21T03:02:00.464Z,99684.52
2018-02-21T03:04:28.083Z,99671.71
2018-02-21T03:06:55.650Z,99671.05
2018-02-21T03:09:23.265Z,99679.44
2018-02-21T03:11:50.901Z,99686.16
2018-02-21T03:14:18.468Z,99683.06
2018-02-21T03:16:46.030Z,99687.31
2018-02-21T03:19:13.627Z,99678.30
2018-02-21T03:21:41.195Z,99682.75
2018-02-21T03:24:08.774Z,99679.31
2018-02-21T03:26:36.380Z,99674.45
2018-02-21T03:29:03.963Z,99678.08
2018-02-21T03:31:31.520Z,99672.78
2018-02-21T03:33:59.142Z,99670.58
2018-02-21T03:36:26.749Z,99673.95
2018-02-21T03:38:54.333Z,99666.78
2018-02-21T03:41:21.927Z,99676.36
2018-02-21T03:43:49.487Z,99676.89
2018-02-21T03:46:17.047Z,99671.40
2018-02-21T03:48:44.650Z,99675.64
2018-02-21T03:51:12.212Z,99675.70
2018-02-21T03:53:39.778Z,99667.39
2018-02-21T03:56:07.373Z,99659.53
2018-02-21T03:58:34.978Z,99667.80
2018-02-21T04:01:02.535Z,99666.31
2018-02-21T04:03:30.199Z,99666.78
2018-02-21T04:05:57.751Z,99665.89
2018-02-21T04:08:25.314Z,99663.44
2018-02-21T04:10:52.922Z,99662.48
2018-02-21T04:13:20.490Z,99658.52
2018-02-21T04:15:48.112Z,99652.30
2018-02-21T04:18:15.718Z,99657.11
2018-02-21T04:20:43.288Z,99656.94
2018-02-21T04:23:10.855Z,99658.05
2018-02-21T04:25:38.455Z,99652.03
2018-02-21T04:28:06.048Z,99658.42
2018-02-21T04:30:33.632Z,99648.41
2018-02-21T04:33:01.241Z,99651.46
2018-02-21T04:35:28.811Z,99651.37
2018-02-21T04:37:56.385Z,99654.00
2018-02-21T04:40:24.029Z,99654.12
2018-02-21T04:42:51.584Z,99659.45
2018-02-21T04:45:19.164Z,99652.87
2018-02-21T04:47:46.776Z,99657.28
2018-02-21T04:50:14.378Z,99655.34
2018-02-21T04:52:41.952Z,99658.20
2018-02-21T04:58:21.157Z,99660.29
2018-02-21T05:00:48.823Z,99664.05
2018-02-21T05:03:16.380Z,99671.93
2018-02-21T05:05:43.954Z,99669.23
2018-02-21T05:08:11.597Z,99676.14
2018-02-21T05:10:39.164Z,99670.61
2018-02-21T05:13:06.741Z,99676.55
2018-02-21T05:15:34.628Z,99649.80
2018-02-21T05:18:02.223Z,99669.41
2018-02-21T05:20:29.788Z,99680.42
2018-02-21T05:22:57.387Z,99680.30
2018-02-21T05:25:25.008Z,99682.54
2018-02-21T05:27:52.575Z,99691.76
2018-02-21T05:30:20.183Z,99698.59
2018-02-21T05:32:47.797Z,99702.66
2018-02-21T05:35:15.362Z,99706.38
2018-02-21T05:37:42.973Z,99707.09
2018-02-21T05:40:10.550Z,99702.75
2018-02-21T05:42:38.132Z,99714.34
2018-02-21T05:45:05.739Z,99715.99
2018-02-21T05:47:33.309Z,99718.14
2018-02-21T05:50:00.884Z,99710.67
2018-02-21T05:52:28.479Z,99719.76
2018-02-21T05:54:56.051Z,99725.04
2018-02-21T05:57:23.611Z,99726.37
2018-02-21T05:59:51.227Z,99726.46
2018-02-21T06:02:18.812Z,99726.53
2018-02-21T06:04:46.372Z,99718.94
2018-02-21T06:07:14.043Z,99718.30
2018-02-21T06:09:41.603Z,99720.22
2018-02-21T06:12:09.182Z,99720.57
2018-02-21T06:14:36.791Z,99722.00
2018-02-21T06:17:04.386Z,99720.66
2018-02-21T06:19:31.958Z,99725.23
2018-02-21T06:21:59.627Z,99724.42
2018-02-21T06:24:27.224Z,99724.80
2018-02-21T06:26:54.794Z,99732.61
2018-02-21T06:29:22.403Z,99730.54
2018-02-21T06:31:50.072Z,99733.16
2018-02-21T06:34:17.650Z,99732.23
2018-02-21T06:36:45.261Z,99734.61
2018-02-21T06:39:12.863Z,99738.61
2018-02-21T06:41:40.462Z,99737.89
2018-02-21T06:44:08.069Z,99736.75
2018-02-21T06:46:35.621Z,99738.67
2018-02-21T06:49:03.201Z,99736.03
2018-02-21T06:51:30.818Z,99733.21
2018-02-21T06:53:58.392Z,99733.81
2018-02-21T06:56:25.973Z,99738.97
2018-02-21T06:58:53.591Z,99742.86
2018-02-21T07:01:21.163Z,99744.13
2018-02-21T07:03:48.728Z,99729.08
2018-02-21T07:06:16.356Z,99733.91
2018-02-21T07:08:43.930Z,99738.66
2018-02-21T07:11:11.539Z,99736.48
2018-02-21T07:13:39.148Z,99743.69
2018-02-21T07:16:06.718Z,99753.14
2018-02-21T07:18:34.303Z,99737.08
2018-02-21T07:21:01.925Z,99735.98
2018-02-21T07:23:29.546Z,99739.08
2018-02-21T07:25:57.131Z,99730.73
2018-02-21T07:28:24.734Z,99733.05
2018-02-21T07:30:52.369Z,99735.03
2018-02-21T07:33:19.944Z,99746.39
2018-02-21T07:35:47.565Z,99748.62
2018-02-21T07:38:15.162Z,99741.84
2018-02-21T07:40:42.730Z,99745.00
2018-02-21T07:43:10.354Z,99745.70
2018-02-21T07:45:37.939Z,99752.83
2018-02-21T07:48:05.496Z,99746.02
2018-02-21T07:50:33.096Z,99747.06
2018-02-21T07:53:00.685Z,99743.88
2018-02-21T07:55:28.282Z,99727.49
2018-02-21T07:57:55.903Z,99729.15
2018-02-21T08:00:23.483Z,99732.19
2018-02-21T08:02:51.047Z,99730.28
2018-02-21T08:05:18.682Z,99729.48
2018-02-21T08:07:46.264Z,99725.88
2018-02-21T08:10:13.829Z,99711.90
2018-02-21T08:12:41.564Z,99712.05
2018-02-21T08:15:09.139Z,99717.30
2018-02-21T08:17:36.716Z,99725.98
2018-02-21T08:20:04.339Z,99721.44
2018-02-21T08:22:31.920Z,99724.06
2018-02-21T08:24:59.544Z,99721.55
2018-02-21T08:27:27.156Z,99721.09
2018-02-21T08:29:54.739Z,99714.73
2018-02-21T08:32:22.323Z,99714.38
2018-02-21T08:34:49.940Z,99722.33
2018-02-21T08:37:17.517Z,99721.55
2018-02-21T08:39:45.104Z,99716.28
2018-02-21T08:42:12.728Z,99715.94
2018-02-21T08:44:40.326Z,99720.55
2018-02-21T08:47:07.913Z,99714.07
2018-02-21T08:49:35.512Z,99717.56
2018-02-21T08:52:03.101Z,99718.41
2018-02-21T08:54:30.696Z,99719.77
2018-02-21T08:56:58.319Z,99713.98
2018-02-21T08:59:25.892Z,99722.03
2018-02-21T09:01:53.470Z,99718.44
2018-02-21T09:04:21.138Z,99730.15
2018-02-21T09:06:48.720Z,99727.28
2018-02-21T09:09:16.300Z,99721.81
2018-02-21T09:11:43.920Z,99724.48
2018-02-21T09:14:11.524Z,99726.33
2018-02-21T09:16:39.146Z,99732.00
2018-02-21T09:19:06.785Z,99731.12
2018-02-21T09:21:34.378Z,99733.34
2018-02-21T09:24:01.949Z,99729.30
2018-02-21T09:26:29.564Z,99728.27
2018-02-21T09:28:57.142Z,99730.27
2018-02-21T09:31:24.722Z,99722.03
2018-02-21T09:33:52.326Z,99720.03
2018-02-21T09:36:19.898Z,99729.81
2018-02-21T09:38:47.512Z,99727.62
2018-02-21T09:41:15.155Z,99724.13
2018-02-21T09:43:42.734Z,99725.10
2018-02-21T09:46:10.313Z,99727.03
2018-02-21T09:48:37.940Z,99732.04
2018-02-21T09:51:05.530Z,99727.47
2018-02-21T09:53:33.104Z,99724.70
2018-02-21T09:56:00.721Z,99719.86
2018-02-21T09:58:28.298Z,99720.02
2018-02-21T10:00:55.929Z,99718.28
2018-02-21T10:03:23.495Z,99713.88
2018-02-21T10:05:51.082Z,99710.59
2018-02-21T10:08:18.666Z,99712.75
2018-02-21T10:10:46.328Z,99713.28
2018-02-21T10:13:13.925Z,99715.79
2018-02-21T10:15:41.522Z,99719.06
2018-02-21T10:18:09.173Z,99716.14
2018-02-21T10:20:36.758Z,99713.47
2018-02-21T10:23:04.338Z,99710.77
2018-02-21T10:25:31.940Z,99704.66
2018-02-21T10:27:59.522Z,99709.54
2018-02-21T10:30:27.129Z,99702.34
2018-02-21T10:32:54.735Z,99708.60
2018-02-21T10:35:22.332Z,99701.22
2018-02-21T10:37:49.904Z,99704.95
2018-02-21T10:40:17.568Z,99704.09
2018-02-21T10:42:45.180Z,99694.30
2018-02-21T10:45:12.765Z,99693.14
2018-02-21T10:47:40.377Z,99694.67
2018-02-21T10:50:07.944Z,99698.52
2018-02-21T10:52:35.529Z,99696.21
2018-02-21T10:55:03.137Z,99693.30
2018-02-21T10:57:30.702Z,99696.72
2018-02-21T10:59:58.290Z,99697.84
2018-02-21T11:02:25.913Z,99691.75
2018-02-21T11:04:53.529Z,99697.03
2018-02-21T11:07:21.095Z,99692.27
2018-02-21T11:09:48.691Z,99692.84
2018-02-21T11:12:16.275Z,99689.30
2018-02-21T11:14:43.856Z,99692.17
2018-02-21T11:17:11.468Z,99691.34
2018-02-21T11:19:39.053Z,99688.63
2018-02-21T11:22:06.612Z,99682.94
2018-02-21T11:24:34.223Z,99676.66
2018-02-21T11:27:01.807Z,99685.39
2018-02-21T11:29:29.394Z,99683.17
2018-02-21T11:31:57.062Z,99683.69
2018-02-21T11:34:24.706Z,99689.31
2018-02-21T11:36:52.294Z,99684.12
2018-02-21T11:39:19.910Z,99686.23
2018-02-21T11:41:47.501Z,99684.42
2018-02-21T11:44:15.085Z,99685.88
2018-02-21T11:46:42.696Z,99681.95
2018-02-21T11:49:10.285Z,99676.84
2018-02-21T11:51:37.866Z,99672.91
2018-02-21T11:54:05.504Z,99680.04
2018-02-21T11:56:33.097Z,99676.20
2018-02-21T11:59:00.842Z,99670.63
2018-02-21T12:01:28.454Z,99671.37
2018-02-21T12:03:56.024Z,99673.25
2018-02-21T12:06:23.600Z,99674.42
2018-02-21T12:08:51.222Z,99673.11
2018-02-21T12:11:18.807Z,99671.71
2018-02-21T12:13:46.394Z,99671.91
2018-02-21T12:16:14.001Z,99669.91
2018-02-21T12:18:41.591Z,99669.18
2018-02-21T12:21:09.177Z,99671.77
2018-02-21T12:23:36.787Z,99667.09
2018-02-21T12:26:04.339Z,99675.73
2018-02-21T12:28:31.904Z,99680.48
2018-02-21T12:30:59.558Z,99676.72
2018-02-21T12:33:27.130Z,99676.86
2018-02-21T12:35:54.750Z,99673.80
2018-02-21T12:38:22.331Z,99672.97
2018-02-21T12:40:55.406Z,99672.22
2018-02-21T12:43:22.987Z,99669.46
2018-02-21T12:45:50.578Z,99673.09
2018-02-21T12:48:18.153Z,99662.52
2018-02-21T12:50:45.748Z,99662.71
2018-02-21T12:53:13.332Z,99660.18
2018-02-21T12:55:41.026Z,99669.16
2018-02-21T12:58:08.605Z,99668.09
2018-02-21T13:00:36.185Z,99657.41
2018-02-21T13:03:03.750Z,99664.86
2018-02-21T13:05:31.344Z,99647.02
2018-02-21T13:07:58.904Z,99663.64
2018-02-21T13:10:26.478Z,99663.37
2018-02-21T13:12:54.090Z,99663.00
2018-02-21T13:15:21.856Z,99655.14
2018-02-21T13:17:49.440Z,99658.17
2018-02-21T13:20:17.114Z,99657.81
2018-02-21T13:22:44.689Z,99660.55
2018-02-21T13:25:12.267Z,99655.78
2018-02-21T13:27:39.881Z,99664.15
2018-02-21T13:30:07.450Z,99659.70
2018-02-21T13:32:35.085Z,99660.84
2018-02-21T13:35:02.701Z,99661.75
2018-02-21T13:37:30.298Z,99664.20
2018-02-21T13:39:58.815Z,99668.73
2018-02-21T13:42:26.419Z,99664.84
2018-02-21T13:44:54.021Z,99666.41
2018-02-21T13:47:21.591Z,99661.05
2018-02-21T13:49:49.223Z,99665.20
2018-02-21T13:52:16.797Z,99661.68
2018-02-21T13:54:44.386Z,99663.27
2018-02-21T13:57:11.979Z,99662.72
2018-02-21T13:59:39.556Z,99660.86
2018-02-21T14:02:07.138Z,99662.30
2018-02-21T14:04:34.755Z,99663.11
2018-02-21T14:07:02.357Z,99662.70
2018-02-21T14:09:29.916Z,99668.89
2018-02-21T14:11:57.544Z,99668.53
2018-02-21T14:14:25.141Z,99668.52
2018-02-21T14:16:52.703Z,99667.20
2018-02-21T14:19:20.327Z,99666.78
2018-02-21T14:21:47.914Z,99663.54
2018-02-21T14:24:15.482Z,99668.86
2018-02-21T14:26:43.102Z,99667.41
2018-02-21T14:29:10.703Z,99666.30
2018-02-21T14:31:38.295Z,99668.23
2018-02-21T14:34:05.915Z,99663.61
2018-02-21T14:36:33.496Z,99663.15
2018-02-21T14:39:01.201Z,99664.84
2018-02-21T14:41:28.808Z,99665.52
2018-02-21T14:43:56.388Z,99664.22
2018-02-21T14:46:23.951Z,99664.31
2018-02-21T14:48:51.560Z,99671.13
2018-02-21T14:51:19.132Z,99660.13
2018-02-21T14:53:46.721Z,99661.78
2018-02-21T14:56:14.335Z,99665.72
2018-02-21T14:58:41.936Z,99662.59
2018-02-21T15:01:09.543Z,99670.27
2018-02-21T15:03:37.147Z,99668.02
2018-02-21T15:06:04.721Z,99661.38
2018-02-21T15:08:32.296Z,99660.16
2018-02-21T15:10:59.944Z,99661.53
2018-02-21T15:13:27.512Z,99657.59
2018-02-21T15:15:55.067Z,99666.28
2018-02-21T15:18:22.698Z,99664.58
2018-02-21T15:20:50.278Z,99657.23
2018-02-21T15:23:17.858Z,99655.08
2018-02-21T15:25:45.477Z,99660.30
2018-02-21T15:28:13.062Z,99667.64
2018-02-21T15:30:40.631Z,99673.17
2018-02-21T15:33:08.397Z,99678.47
2018-02-21T15:35:35.991Z,99680.31
2018-02-21T15:38:03.556Z,99684.00
2018-02-21T15:40:31.180Z,99678.67
2018-02-21T15:42:58.763Z,99682.60
2018-02-21T15:45:26.334Z,99683.09
2018-02-21T15:47:54.016Z,99687.02
2018-02-21T15:50:21.622Z,99679.33
2018-02-21T15:52:49.202Z,99687.23
2018-02-21T15:55:16.794Z,99684.92
2018-02-21T15:57:44.357Z,99691.91
2018-02-21T16:00:11.933Z,99690.81
2018-02-21T16:02:39.553Z,99693.19
2018-02-21T16:05:07.128Z,99693.55
2018-02-21T16:07:34.748Z,99684.12
2018-02-21T16:10:02.371Z,99693.42
2018-02-21T16:12:29.936Z,99691.91
2018-02-21T16:14:57.519Z,99691.41
2018-02-21T16:17:25.137Z,99693.11
2018-02-21T16:19:52.742Z,99687.33
2018-02-21T16:22:20.317Z,99690.08
2018-02-21T16:24:47.933Z,99682.42
2018-02-21T16:27:15.565Z,99685.86
2018-02-21T16:29:43.174Z,99689.82
2018-02-21T16:32:10.770Z,99704.08
2018-02-21T16:34:38.348Z,99700.09
2018-02-21T16:37:06.004Z,99698.11
2018-02-21T16:39:33.644Z,99697.63
2018-02-21T16:42:01.221Z,99698.20
2018-02-21T16:44:28.810Z,99700.48
2018-02-21T16:46:56.395Z,99702.53
2018-02-21T16:49:24.005Z,99706.93
2018-02-21T16:51:51.564Z,99702.13
2018-02-21T16:54:22.023Z,99700.67
2018-02-21T16:56:49.592Z,99700.58
2018-02-21T16:59:17.182Z,99698.77
2018-02-21T17:01:44.784Z,99708.67
2018-02-21T17:04:12.343Z,99709.69
2018-02-21T17:06:39.904Z,99709.17
2018-02-21T17:09:07.542Z,99709.97
2018-02-21T17:11:35.289Z,99714.05
2018-02-21T17:14:02.930Z,99718.37
2018-02-21T17:16:30.539Z,99716.33
2018-02-21T17:18:58.114Z,99710.41
2018-02-21T17:21:25.679Z,99711.30
2018-02-21T17:23:53.308Z,99716.83
2018-02-21T17:26:20.887Z,99710.59
2018-02-21T17:28:48.464Z,99710.88
2018-02-21T17:31:16.150Z,99719.39
2018-02-21T17:33:43.713Z,99725.08
2018-02-21T17:36:11.318Z,99721.86
2018-02-21T17:38:38.938Z,99728.59
2018-02-21T17:41:12.116Z,99722.23
2018-02-21T17:43:39.725Z,99731.69
2018-02-21T17:46:07.404Z,99734.17
2018-02-21T17:48:34.972Z,99739.48
2018-02-21T17:51:02.631Z,99740.63
2018-02-21T17:53:30.187Z,99733.47
2018-02-21T17:55:57.801Z,99734.80
2018-02-21T17:58:25.388Z,99736.44
2018-02-21T18:00:53.013Z,99739.31
2018-02-21T18:03:20.656Z,99732.99
2018-02-21T18:05:48.231Z,99734.47
2018-02-21T18:08:15.796Z,99738.80
2018-02-21T18:10:43.375Z,99739.89
2018-02-21T18:13:10.978Z,99742.88
2018-02-21T18:15:38.543Z,99750.84
2018-02-21T18:18:06.113Z,99749.19
2018-02-21T18:20:33.710Z,99748.22
2018-02-21T18:23:01.297Z,99744.11
2018-02-21T18:25:28.874Z,99739.96
2018-02-21T18:27:56.475Z,99738.06
2018-02-21T18:30:24.046Z,99737.19
2018-02-21T18:32:51.607Z,99737.07
2018-02-21T18:35:19.214Z,99742.45
2018-02-21T18:37:46.992Z,99745.24
2018-02-21T18:40:14.575Z,99734.32
2018-02-21T18:42:42.181Z,99734.41
2018-02-21T18:45:09.749Z,99730.91
2018-02-21T18:47:37.360Z,99729.67
2018-02-21T18:50:04.948Z,99724.90
2018-02-21T18:52:32.516Z,99729.70
2018-02-21T18:55:00.098Z,99730.34
2018-02-21T18:57:27.701Z,99722.24
2018-02-21T18:59:55.329Z,99723.52
2018-02-21T19:02:22.915Z,99728.81
2018-02-21T19:04:50.522Z,99729.78
2018-02-21T19:07:18.125Z,99722.14
2018-02-21T19:09:45.707Z,99718.77
2018-02-21T19:12:13.368Z,99723.88
2018-02-21T19:14:40.958Z,99723.59
2018-02-21T19:17:08.564Z,99719.09
2018-02-21T19:19:36.197Z,99728.86
2018-02-21T19:22:03.770Z,99729.09
2018-02-21T19:24:32.044Z,99721.14
2018-02-21T19:26:59.676Z,99728.05
2018-02-21T19:29:27.243Z,99731.74
2018-02-21T19:31:54.845Z,99736.01
2018-02-21T19:34:22.444Z,99738.66
2018-02-21T19:36:50.022Z,99729.80
2018-02-21T19:39:17.583Z,99735.36
2018-02-21T19:41:45.206Z,99731.85
2018-02-21T19:44:12.835Z,99728.41
2018-02-21T19:46:40.419Z,99726.96
2018-02-21T19:49:08.053Z,99725.70
2018-02-21T19:51:35.621Z,99721.02
2018-02-21T19:54:03.183Z,99725.64
2018-02-21T19:56:30.894Z,99725.90
2018-02-21T19:58:58.488Z,99734.50
2018-02-21T20:01:26.044Z,99733.59
2018-02-21T20:03:53.702Z,99737.55
2018-02-21T20:06:21.259Z,99728.88
2018-02-21T20:08:48.824Z,99726.41
2018-02-21T20:11:16.448Z,99725.53
2018-02-21T20:13:44.001Z,99732.04
2018-02-21T20:16:11.795Z,99722.08
2018-02-21T20:18:39.409Z,99726.66
2018-02-21T20:21:06.963Z,99736.77
2018-02-21T20:23:34.527Z,99727.55
2018-02-21T20:26:02.142Z,99731.65
2018-02-21T20:28:29.707Z,99727.27
2018-02-21T20:30:57.274Z,99727.89
2018-02-21T20:33:24.921Z,99728.45
2018-02-21T20:35:52.488Z,99731.36
2018-02-21T20:38:20.076Z,99729.03
2018-02-21T20:40:47.704Z,99731.34
2018-02-21T20:43:15.256Z,99725.30
2018-02-21T20:45:42.822Z,99716.33
2018-02-21T20:48:10.408Z,99725.90
2018-02-21T20:50:37.962Z,99733.48
2018-02-21T20:53:05.520Z,99726.03
2018-02-21T20:55:33.134Z,99716.95
2018-02-21T20:58:00.687Z,99717.23
2018-02-21T21:00:28.281Z,99712.34
2018-02-21T21:02:55.888Z,99720.14
2018-02-21T21:05:23.489Z,99723.06
2018-02-21T21:07:51.092Z,99723.69
2018-02-21T21:10:18.736Z,99731.88
2018-02-21T21:12:46.326Z,99721.31
2018-02-21T21:15:13.878Z,99722.02
2018-02-21T21:17:41.492Z,99728.30
2018-02-21T21:20:09.171Z,99725.00
2018-02-21T21:22:36.760Z,99723.80
2018-02-21T21:25:04.372Z,99716.73
2018-02-21T21:27:31.959Z,99718.70
2018-02-21T21:29:59.518Z,99719.47
2018-02-21T21:32:27.124Z,99724.81
2018-02-21T21:34:54.683Z,99721.33
2018-02-21T21:37:22.236Z,99724.39
2018-02-21T21:39:49.835Z,99721.52
2018-02-21T21:42:17.432Z,99709.39
2018-02-21T21:44:45.047Z,99712.98
2018-02-21T21:47:12.606Z,99719.97
2018-02-21T21:49:40.173Z,99725.00
2018-02-21T21:52:07.758Z,99720.50
2018-02-21T21:54:35.325Z,99729.53
2018-02-21T21:57:02.878Z,99717.73
2018-02-21T21:59:30.481Z,99724.69
2018-02-21T22:01:58.049Z,99720.11
2018-02-21T22:04:25.638Z,99724.46
2018-02-21T22:06:53.309Z,99719.77
2018-02-21T22:09:20.864Z,99702.48
2018-02-21T22:11:48.421Z,99723.83
2018-02-21T22:14:16.138Z,99734.95
2018-02-21T22:16:43.702Z,99729.08
2018-02-21T22:19:11.257Z,99723.41
2018-02-21T22:21:38.849Z,99723.47
2018-02-21T22:24:06.419Z,99716.50
2018-02-21T22:26:33.981Z,99720.80
2018-02-21T22:29:01.567Z,99718.97
2018-02-21T22:31:29.125Z,99723.79
2018-02-21T22:33:56.702Z,99729.38
2018-02-21T22:36:24.301Z,99734.93
2018-02-21T22:38:51.916Z,99730.91
2018-02-21T22:41:19.473Z,99729.90
2018-02-21T22:43:47.076Z,99724.30
2018-02-21T22:46:14.785Z,99722.73
2018-02-21T22:48:42.369Z,99723.05
2018-02-21T22:51:10.326Z,99712.03
2018-02-21T22:53:37.878Z,99721.73
2018-02-21T22:56:05.539Z,99720.21
2018-02-21T22:58:33.253Z,99728.00
2018-02-21T23:01:00.850Z,99720.09
2018-02-21T23:03:28.424Z,99719.72
2018-02-21T23:05:56.019Z,99721.36
2018-02-21T23:08:23.586Z,99709.60
2018-02-21T23:10:51.173Z,99716.63
2018-02-21T23:13:18.790Z,99714.73
2018-02-21T23:15:46.364Z,99714.47
2018-02-21T23:18:13.954Z,99710.83
2018-02-21T23:20:41.556Z,99716.81
2018-02-21T23:23:09.106Z,99718.95
2018-02-21T23:25:36.688Z,99710.89
2018-02-21T23:28:04.315Z,99708.52
2018-02-21T23:30:31.869Z,99708.34
2018-02-21T23:32:59.431Z,99700.88
2018-02-21T23:35:27.031Z,99705.96
2018-02-21T23:37:54.605Z,99699.59
2018-02-21T23:40:22.183Z,99701.59
2018-02-21T23:42:49.811Z,99703.01
2018-02-21T23:45:17.366Z,99703.16
2018-02-21T23:47:44.922Z,99702.22
2018-02-21T23:50:12.519Z,99704.56
2018-02-21T23:52:40.128Z,99700.36
2018-02-21T23:55:07.712Z,99706.23
2018-02-21T23:57:35.363Z,99700.08
